Sauk City, Wisconsin
Current Conditions -  °F | °C
As of 1:35 PM on Tuesday 21 Oct 2014 (Local Time) from KC29 Reporting Station
Overcast Overcast  
Wind Chill: 45°   Ceiling: 2100
Heat Index: 48°   Visibility: 10mi
Dew Point: 37°   Wind: 7mph
Humidity: 64%   Direction: 60°ENE
Pressure: 30.23"   Gusts: NA
Location:  43.27°N, 89.72°W
Report Text: KC29 211835Z AUTO 06006KT 10SM OVC021 09/03 A3023 RMK AO1 T00910026
Loading
Personal Weather Stations






























Interactive Weather Map
Tropical Storm Tracking
New forecast layout! Learn more

10-Day Weather Forecast

Advertisements
Track Severe Weather on mobile